Time;durP1;ratioP1;P1;durP2;ratioP2;P2;SDS_P1;SDS_P2;PMS_P1;PMS_P2;Temp;Humidity;BMP_temperature;BMP_pressure;BME280_temperature;BME280_humidity;BME280_pressure;Samples;Min_cycle;Max_cycle;Signal;HPM_P1;HPM_P2
2022/03/29 00:02:13;;;;;;;;;;;14.40;93.20;;;;;;4287347;33;45153;-82
2022/03/29 00:04:40;;;;;;;;;;;14.40;93.20;;;;;;4286667;33;43067;-83
2022/03/29 00:07:07;;;;;;;;;;;14.40;93.20;;;;;;4287307;33;42719;-83
2022/03/29 00:09:34;;;;;;;;;;;14.40;93.30;;;;;;4286219;33;42988;-82
2022/03/29 00:12:01;;;;;;;;;;;14.40;93.60;;;;;;4287734;33;44109;-83
2022/03/29 00:14:28;;;;;;;;;;;14.40;93.30;;;;;;4287211;33;43195;-83
2022/03/29 00:16:55;;;;;;;;;;;14.40;93.20;;;;;;4286530;33;44778;-83
2022/03/29 00:19:23;;;;;;;;;;;14.40;93.30;;;;;;4287366;33;45551;-83
2022/03/29 00:21:50;;;;;;;;;;;14.30;93.10;;;;;;4287415;33;43871;-83
2022/03/29 00:24:17;;;;;;;;;;;14.30;93.30;;;;;;4287020;33;42314;-82
2022/03/29 00:26:44;;;;;;;;;;;14.30;93.20;;;;;;4287277;33;42675;-83
2022/03/29 00:29:11;;;;;;;;;;;14.30;93.40;;;;;;4286981;33;43878;-83
2022/03/29 00:31:38;;;;;;;;;;;14.30;93.30;;;;;;4286296;33;42660;-83
2022/03/29 00:34:05;;;;;;;;;;;14.30;93.30;;;;;;4286076;33;42865;-83
2022/03/29 00:36:32;;;;;;;;;;;14.30;93.20;;;;;;4287036;33;41572;-83
2022/03/29 00:39:00;;;;;;;;;;;14.30;93.40;;;;;;4286096;33;44179;-83
2022/03/29 00:41:27;;;;;;;;;;;14.30;93.30;;;;;;4287251;33;42989;-83
2022/03/29 00:43:54;;;;;;;;;;;14.30;93.50;;;;;;4287447;33;44210;-83
2022/03/29 00:46:21;;;;;;;;;;;14.30;93.50;;;;;;4287383;33;43482;-82
2022/03/29 00:48:48;;;;;;;;;;;14.30;93.50;;;;;;4286831;33;42756;-82
2022/03/29 00:51:16;;;;;;;;;;;14.30;93.60;;;;;;4286939;33;42874;-82
2022/03/29 00:53:43;;;;;;;;;;;14.30;93.60;;;;;;4287017;33;44188;-82
2022/03/29 00:56:10;;;;;;;;;;;14.30;93.70;;;;;;4286993;33;44267;-82
2022/03/29 00:58:38;;;;;;;;;;;14.30;93.60;;;;;;4286660;33;44296;-82
2022/03/29 01:01:05;;;;;;;;;;;14.30;93.60;;;;;;4285699;33;43963;-83
2022/03/29 01:03:33;;;;;;;;;;;14.30;93.50;;;;;;4286672;33;43798;-83
2022/03/29 01:06:00;;;;;;;;;;;14.30;93.50;;;;;;4286586;33;44092;-83
2022/03/29 01:08:27;;;;;;;;;;;14.30;93.70;;;;;;4286892;33;43040;-82
2022/03/29 01:10:55;;;;;;;;;;;14.20;93.20;;;;;;4285996;33;44689;-83
2022/03/29 01:13:22;;;;;;;;;;;14.20;93.50;;;;;;4287030;33;43735;-82
2022/03/29 01:15:50;;;;;;;;;;;14.20;93.50;;;;;;4285398;33;44092;-82
2022/03/29 01:18:18;;;;;;;;;;;14.20;93.60;;;;;;4286654;33;43864;-82
2022/03/29 01:20:49;;;;;;;;;;;14.20;93.60;;;;;;4285473;33;45289;-83
2022/03/29 01:23:16;;;;;;;;;;;14.20;93.70;;;;;;4285860;33;44849;-82
2022/03/29 01:25:44;;;;;;;;;;;14.10;93.60;;;;;;4285770;33;43909;-82
2022/03/29 01:28:13;;;;;;;;;;;14.10;93.70;;;;;;4286868;33;42941;-83
2022/03/29 01:30:41;;;;;;;;;;;14.10;93.60;;;;;;4285901;33;45475;-83
2022/03/29 01:33:09;;;;;;;;;;;14.10;93.70;;;;;;4285958;33;43916;-83
2022/03/29 01:35:36;;;;;;;;;;;14.10;93.70;;;;;;4286655;33;42893;-82
2022/03/29 01:38:03;;;;;;;;;;;14.10;93.80;;;;;;4288518;33;45052;-82
2022/03/29 01:40:30;;;;;;;;;;;14.10;94.10;;;;;;4288335;33;43978;-83
2022/03/29 01:43:01;;;;;;;;;;;14.10;93.70;;;;;;4288583;33;43282;-83
2022/03/29 01:45:30;;;;;;;;;;;14.10;93.80;;;;;;4288841;33;44201;-83
2022/03/29 01:47:57;;;;;;;;;;;14.00;93.80;;;;;;4289391;33;42990;-82
2022/03/29 01:50:24;;;;;;;;;;;14.00;93.80;;;;;;4289276;33;43760;-82
2022/03/29 01:52:51;;;;;;;;;;;14.00;93.90;;;;;;4289193;33;43516;-83
2022/03/29 01:55:20;;;;;;;;;;;14.00;94.00;;;;;;4288193;33;44251;-83
2022/03/29 01:57:47;;;;;;;;;;;14.00;94.00;;;;;;4288488;33;42678;-83
2022/03/29 02:00:39;;;;;;;;;;;14.00;93.90;;;;;;4289568;33;43902;-83
2022/03/29 02:03:04;;;;;;;;;;;14.00;94.00;;;;;;4289145;33;44025;-83
2022/03/29 02:05:32;;;;;;;;;;;14.00;94.00;;;;;;4289353;33;45945;-82
2022/03/29 02:07:59;;;;;;;;;;;14.00;94.00;;;;;;4289526;33;43890;-83
2022/03/29 02:10:27;;;;;;;;;;;14.00;93.90;;;;;;4289441;33;45754;-83
2022/03/29 02:12:54;;;;;;;;;;;14.00;94.00;;;;;;4287994;33;43818;-83
2022/03/29 02:15:21;;;;;;;;;;;13.90;93.90;;;;;;4288109;33;42348;-83
2022/03/29 02:17:52;;;;;;;;;;;13.90;94.00;;;;;;4288955;33;42319;-83
2022/03/29 02:20:20;;;;;;;;;;;13.90;94.10;;;;;;4287719;33;43844;-83
2022/03/29 02:22:47;;;;;;;;;;;14.00;94.10;;;;;;4288888;33;43722;-83
2022/03/29 02:25:14;;;;;;;;;;;13.90;94.20;;;;;;4289481;33;23996;-83
2022/03/29 02:27:43;;;;;;;;;;;13.90;94.20;;;;;;4288794;33;44223;-83
2022/03/29 02:30:12;;;;;;;;;;;13.90;94.10;;;;;;4288209;33;44179;-83
2022/03/29 02:32:40;;;;;;;;;;;13.90;94.10;;;;;;4288084;33;43780;-83
2022/03/29 02:35:07;;;;;;;;;;;13.90;94.20;;;;;;4289140;33;44377;-83
2022/03/29 02:37:35;;;;;;;;;;;13.90;94.40;;;;;;4288147;33;43246;-83
2022/03/29 02:40:03;;;;;;;;;;;13.90;94.20;;;;;;4287812;33;43657;-83
2022/03/29 02:42:30;;;;;;;;;;;13.90;94.20;;;;;;4287474;33;42922;-83
2022/03/29 02:44:57;;;;;;;;;;;13.90;94.20;;;;;;4288499;33;43431;-83
2022/03/29 02:47:24;;;;;;;;;;;13.80;94.10;;;;;;4288905;33;44232;-82
2022/03/29 02:49:52;;;;;;;;;;;13.80;94.20;;;;;;4288863;33;44182;-82
2022/03/29 02:52:19;;;;;;;;;;;13.80;94.30;;;;;;4288878;33;43163;-83
2022/03/29 02:54:46;;;;;;;;;;;13.80;94.10;;;;;;4287276;33;42954;-82
2022/03/29 02:57:13;;;;;;;;;;;13.70;94.10;;;;;;4287435;33;43275;-83
2022/03/29 02:59:40;;;;;;;;;;;13.70;94.10;;;;;;4288389;33;44184;-83
2022/03/29 03:02:07;;;;;;;;;;;13.70;94.40;;;;;;4288070;33;44269;-83
2022/03/29 03:04:35;;;;;;;;;;;13.70;94.30;;;;;;4288618;33;44244;-83
2022/03/29 03:07:02;;;;;;;;;;;13.70;94.30;;;;;;4288837;33;43498;-83
2022/03/29 03:09:29;;;;;;;;;;;13.70;94.40;;;;;;4287651;33;45721;-83
2022/03/29 03:11:56;;;;;;;;;;;13.70;94.50;;;;;;4287153;33;43886;-83
2022/03/29 03:14:23;;;;;;;;;;;13.70;94.30;;;;;;4288082;33;43271;-83
2022/03/29 03:16:50;;;;;;;;;;;13.60;94.30;;;;;;4288467;33;43036;-82
2022/03/29 03:19:36;;;;;;;;;;;13.60;94.40;;;;;;4288099;33;43478;-83
2022/03/29 03:22:03;;;;;;;;;;;13.60;94.50;;;;;;4287970;33;42937;-83
2022/03/29 03:24:31;;;;;;;;;;;13.60;94.50;;;;;;4286865;33;44519;-82
2022/03/29 03:26:58;;;;;;;;;;;13.60;94.60;;;;;;4287082;33;45021;-82
2022/03/29 03:29:25;;;;;;;;;;;13.60;94.60;;;;;;4288355;33;44128;-83
2022/03/29 03:31:52;;;;;;;;;;;13.60;94.50;;;;;;4288248;33;43523;-82
2022/03/29 03:34:19;;;;;;;;;;;13.60;94.50;;;;;;4287227;33;44227;-83
2022/03/29 03:36:46;;;;;;;;;;;13.60;94.60;;;;;;4287851;33;44179;-83
2022/03/29 03:39:13;;;;;;;;;;;13.60;94.70;;;;;;4286907;33;44154;-82
2022/03/29 03:41:40;;;;;;;;;;;13.60;94.50;;;;;;4286963;33;42624;-83
2022/03/29 03:44:09;;;;;;;;;;;13.50;94.80;;;;;;4287149;33;43910;-82
2022/03/29 03:46:36;;;;;;;;;;;13.50;94.60;;;;;;4287583;33;42987;-83
2022/03/29 03:49:03;;;;;;;;;;;13.50;94.60;;;;;;4286784;33;44078;-83
2022/03/29 03:51:30;;;;;;;;;;;13.50;94.60;;;;;;4287002;33;45307;-82
2022/03/29 03:53:57;;;;;;;;;;;13.40;94.60;;;;;;4286810;33;42231;-82
2022/03/29 03:56:24;;;;;;;;;;;13.50;94.70;;;;;;4286976;33;43868;-83
2022/03/29 03:58:54;;;;;;;;;;;13.40;94.70;;;;;;4287616;33;43266;-83
2022/03/29 04:01:23;;;;;;;;;;;13.40;94.80;;;;;;4286198;33;44218;-83
2022/03/29 04:03:51;;;;;;;;;;;13.40;94.90;;;;;;4286433;33;44639;-83
2022/03/29 04:06:23;;;;;;;;;;;13.40;94.80;;;;;;4287776;33;43878;-82
2022/03/29 04:08:50;;;;;;;;;;;13.40;94.90;;;;;;4287612;33;44116;-84
2022/03/29 04:11:18;;;;;;;;;;;13.40;94.90;;;;;;4286384;33;42818;-83
2022/03/29 04:13:45;;;;;;;;;;;13.40;94.90;;;;;;4287618;33;44519;-82
2022/03/29 04:16:12;;;;;;;;;;;13.40;94.90;;;;;;4286648;33;43203;-83
2022/03/29 04:18:40;;;;;;;;;;;13.40;95.00;;;;;;4287204;33;43655;-83
2022/03/29 04:21:08;;;;;;;;;;;13.40;95.00;;;;;;4287052;33;44016;-83
2022/03/29 04:23:38;;;;;;;;;;;13.40;95.00;;;;;;4287453;33;43351;-83
2022/03/29 04:26:05;;;;;;;;;;;13.40;95.00;;;;;;4286546;33;43194;-83
2022/03/29 04:28:32;;;;;;;;;;;13.40;95.10;;;;;;4286127;33;42223;-83
2022/03/29 04:30:59;;;;;;;;;;;13.30;94.90;;;;;;4287038;33;43956;-83
2022/03/29 04:33:27;;;;;;;;;;;13.30;95.10;;;;;;4286130;33;43213;-82
2022/03/29 04:35:54;;;;;;;;;;;13.30;95.10;;;;;;4287423;33;43474;-83
2022/03/29 04:38:23;;;;;;;;;;;13.30;95.10;;;;;;4285898;33;43336;-83
2022/03/29 04:40:50;;;;;;;;;;;13.30;95.10;;;;;;4286837;33;44111;-83
2022/03/29 04:43:17;;;;;;;;;;;13.30;95.20;;;;;;4286897;33;43040;-83
2022/03/29 04:45:44;;;;;;;;;;;13.30;95.20;;;;;;4287034;33;43785;-83
2022/03/29 04:48:12;;;;;;;;;;;13.30;95.30;;;;;;4285718;33;44094;-83
2022/03/29 04:50:39;;;;;;;;;;;13.20;95.30;;;;;;4286173;33;42650;-84
2022/03/29 04:53:06;;;;;;;;;;;13.20;95.20;;;;;;4286215;33;44089;-83
2022/03/29 04:55:33;;;;;;;;;;;13.20;95.40;;;;;;4286065;33;29826;-83
2022/03/29 04:58:00;;;;;;;;;;;13.20;95.50;;;;;;4286291;33;43322;-83
2022/03/29 05:00:28;;;;;;;;;;;13.20;95.50;;;;;;4285791;33;42661;-82
2022/03/29 05:02:55;;;;;;;;;;;13.20;95.60;;;;;;4286400;33;46029;-83
2022/03/29 05:05:22;;;;;;;;;;;13.20;95.60;;;;;;4286668;33;43728;-83
2022/03/29 05:07:49;;;;;;;;;;;13.10;95.50;;;;;;4285511;33;42184;-83
2022/03/29 05:10:16;;;;;;;;;;;13.20;95.50;;;;;;4286020;33;43260;-83
2022/03/29 05:12:47;;;;;;;;;;;13.20;95.60;;;;;;4286869;33;43009;-83
2022/03/29 05:15:16;;;;;;;;;;;13.20;95.50;;;;;;4287037;33;43111;-83
2022/03/29 05:17:43;;;;;;;;;;;13.10;95.60;;;;;;4287052;33;43444;-82
2022/03/29 05:20:11;;;;;;;;;;;13.20;95.60;;;;;;4285821;33;43552;-83
2022/03/29 05:22:45;;;;;;;;;;;13.10;95.60;;;;;;4286485;33;42526;-83
2022/03/29 05:25:13;;;;;;;;;;;13.10;95.50;;;;;;4286660;33;43893;-83
2022/03/29 05:27:40;;;;;;;;;;;13.00;95.60;;;;;;4285628;33;44274;-83
2022/03/29 05:30:08;;;;;;;;;;;13.10;95.70;;;;;;4286512;33;44144;-83
2022/03/29 05:32:35;;;;;;;;;;;13.00;95.70;;;;;;4285333;33;45126;-83
2022/03/29 05:35:03;;;;;;;;;;;13.00;95.80;;;;;;4285740;33;44321;-83
2022/03/29 05:37:30;;;;;;;;;;;13.00;95.70;;;;;;4285471;33;44060;-83
2022/03/29 05:39:57;;;;;;;;;;;13.00;95.70;;;;;;4286686;33;44175;-83
2022/03/29 05:42:25;;;;;;;;;;;13.00;95.80;;;;;;4285354;33;44237;-83
2022/03/29 05:44:52;;;;;;;;;;;13.00;95.70;;;;;;4286666;33;44087;-82
2022/03/29 05:50:06;;;;;;;;;;;13.00;95.80;;;;;;4286507;33;43079;-83
2022/03/29 05:52:33;;;;;;;;;;;13.00;95.60;;;;;;4285216;33;43481;-82
2022/03/29 05:55:00;;;;;;;;;;;12.90;95.60;;;;;;4285515;33;42938;-82
2022/03/29 05:57:27;;;;;;;;;;;12.90;95.70;;;;;;4286331;33;44624;-83
2022/03/29 05:59:54;;;;;;;;;;;12.80;95.70;;;;;;4286738;33;43277;-83
2022/03/29 06:02:21;;;;;;;;;;;12.80;96.00;;;;;;4286277;33;44611;-83
2022/03/29 06:04:48;;;;;;;;;;;12.80;96.00;;;;;;4285522;33;43849;-83
2022/03/29 06:07:15;;;;;;;;;;;12.70;96.00;;;;;;4285434;33;44333;-82
2022/03/29 06:09:42;;;;;;;;;;;12.80;96.20;;;;;;4285591;33;43934;-83
2022/03/29 06:12:10;;;;;;;;;;;12.80;96.20;;;;;;4285428;33;43089;-82
2022/03/29 06:14:37;;;;;;;;;;;12.70;96.20;;;;;;4286655;33;45122;-83
2022/03/29 06:17:06;;;;;;;;;;;12.80;96.20;;;;;;4285073;33;44928;-83
2022/03/29 06:19:34;;;;;;;;;;;12.80;96.30;;;;;;4285505;33;43847;-83
2022/03/29 06:22:01;;;;;;;;;;;12.80;96.40;;;;;;4286813;33;43461;-83
2022/03/29 06:24:28;;;;;;;;;;;12.80;96.50;;;;;;4288123;33;42963;-83
2022/03/29 06:26:55;;;;;;;;;;;12.80;96.60;;;;;;4288153;33;43087;-83
2022/03/29 06:29:22;;;;;;;;;;;12.80;96.60;;;;;;4289214;33;43781;-83
2022/03/29 06:31:49;;;;;;;;;;;12.80;96.70;;;;;;4288032;33;42786;-82
2022/03/29 06:34:17;;;;;;;;;;;12.80;97.20;;;;;;4287676;33;43365;-82
2022/03/29 06:36:44;;;;;;;;;;;12.80;96.80;;;;;;4287554;33;44181;-81
2022/03/29 06:39:12;;;;;;;;;;;12.80;96.90;;;;;;4288631;33;42926;-82
2022/03/29 06:41:39;;;;;;;;;;;12.80;96.80;;;;;;4288954;33;44573;-82
2022/03/29 06:44:07;;;;;;;;;;;12.80;96.90;;;;;;4288867;33;42952;-83
2022/03/29 06:46:34;;;;;;;;;;;12.80;97.00;;;;;;4288554;33;44242;-83
2022/03/29 06:49:02;;;;;;;;;;;12.80;96.90;;;;;;4288374;33;44982;-82
2022/03/29 06:51:30;;;;;;;;;;;12.80;97.00;;;;;;4288729;33;42437;-83
2022/03/29 06:53:57;;;;;;;;;;;12.80;96.90;;;;;;4288830;33;44101;-82
2022/03/29 06:56:25;;;;;;;;;;;12.80;97.10;;;;;;4288467;33;20034;-82
2022/03/29 06:58:52;;;;;;;;;;;12.80;97.20;;;;;;4288643;33;43321;-82
2022/03/29 07:01:19;;;;;;;;;;;12.70;97.20;;;;;;4288130;33;44774;-82
2022/03/29 07:03:46;;;;;;;;;;;12.70;97.20;;;;;;4287264;33;43877;-82
2022/03/29 07:06:14;;;;;;;;;;;12.80;97.30;;;;;;4287612;33;43863;-82
2022/03/29 07:11:46;;;;;;;;;;;12.70;97.30;;;;;;4288740;33;46348;-82
2022/03/29 07:14:14;;;;;;;;;;;12.70;97.50;;;;;;4286883;33;44696;-82
2022/03/29 07:16:43;;;;;;;;;;;12.70;97.50;;;;;;4286892;33;46262;-82
2022/03/29 07:19:10;;;;;;;;;;;12.70;97.60;;;;;;4288375;33;44372;-83
2022/03/29 07:21:39;;;;;;;;;;;12.70;97.60;;;;;;4287379;33;43965;-83
2022/03/29 07:24:06;;;;;;;;;;;12.70;97.50;;;;;;4286880;33;45077;-82
2022/03/29 07:26:34;;;;;;;;;;;12.70;97.90;;;;;;4288997;33;20062;-82
2022/03/29 07:29:01;;;;;;;;;;;12.70;97.60;;;;;;4287962;33;43212;-82
2022/03/29 07:31:28;;;;;;;;;;;12.70;97.60;;;;;;4287081;33;44184;-82
2022/03/29 07:33:56;;;;;;;;;;;12.80;97.80;;;;;;4286222;33;43863;-82
2022/03/29 07:36:23;;;;;;;;;;;12.80;97.90;;;;;;4287276;33;44356;-82
2022/03/29 07:38:50;;;;;;;;;;;12.80;97.60;;;;;;4287936;33;44232;-82
2022/03/29 07:41:17;;;;;;;;;;;12.80;97.90;;;;;;4287035;33;43908;-82
2022/03/29 07:43:44;;;;;;;;;;;12.80;97.90;;;;;;4286740;33;43529;-83
2022/03/29 07:46:11;;;;;;;;;;;12.80;97.80;;;;;;4288313;33;44176;-82
2022/03/29 07:48:38;;;;;;;;;;;12.80;97.70;;;;;;4286532;33;42210;-82
2022/03/29 07:51:25;;;;;;;;;;;12.80;97.50;;;;;;4286945;33;43926;-82
2022/03/29 07:53:52;;;;;;;;;;;12.80;97.70;;;;;;4287650;33;44184;-82
2022/03/29 07:56:20;;;;;;;;;;;12.80;98.00;;;;;;4286853;33;44128;-82
2022/03/29 07:58:47;;;;;;;;;;;12.80;97.60;;;;;;4286438;33;42891;-82
2022/03/29 08:01:14;;;;;;;;;;;12.80;97.60;;;;;;4286795;33;44247;-82
2022/03/29 08:03:42;;;;;;;;;;;12.90;97.50;;;;;;4287636;33;43460;-82
2022/03/29 08:06:09;;;;;;;;;;;12.80;97.60;;;;;;4287611;33;42714;-82
2022/03/29 08:08:36;;;;;;;;;;;12.80;97.60;;;;;;4286666;33;43842;-82
2022/03/29 08:11:04;;;;;;;;;;;12.80;97.50;;;;;;4287302;33;43070;-81
2022/03/29 08:13:31;;;;;;;;;;;12.80;97.50;;;;;;4286619;33;43470;-82
2022/03/29 08:15:58;;;;;;;;;;;12.90;97.50;;;;;;4287755;33;43930;-82
2022/03/29 08:18:25;;;;;;;;;;;12.90;97.60;;;;;;4286217;33;42748;-82
2022/03/29 08:20:53;;;;;;;;;;;12.80;97.60;;;;;;4287282;33;43491;-81
2022/03/29 08:23:20;;;;;;;;;;;12.90;97.60;;;;;;4286184;33;43921;-82
2022/03/29 08:25:47;;;;;;;;;;;12.90;97.60;;;;;;4287103;33;43873;-82
2022/03/29 08:28:14;;;;;;;;;;;12.90;97.50;;;;;;4287065;33;43308;-82
2022/03/29 08:30:42;;;;;;;;;;;12.90;97.50;;;;;;4287406;33;43625;-83
2022/03/29 08:33:09;;;;;;;;;;;12.90;97.50;;;;;;4287148;33;44122;-82
2022/03/29 08:35:39;;;;;;;;;;;13.00;97.50;;;;;;4285958;33;43046;-82
2022/03/29 08:38:06;;;;;;;;;;;13.00;97.50;;;;;;4286211;33;43034;-82
2022/03/29 08:40:54;;;;;;;;;;;13.00;97.50;;;;;;4287007;33;44117;-82
2022/03/29 08:43:22;;;;;;;;;;;13.00;97.50;;;;;;4286217;33;43526;-82
2022/03/29 08:45:49;;;;;;;;;;;13.00;97.60;;;;;;4287014;33;43631;-82
2022/03/29 08:48:17;;;;;;;;;;;13.00;97.50;;;;;;4285793;33;42784;-82
2022/03/29 08:50:45;;;;;;;;;;;13.00;97.60;;;;;;4287066;33;43490;-82
2022/03/29 08:53:17;;;;;;;;;;;13.00;97.50;;;;;;4287140;33;43436;-83
2022/03/29 08:55:45;;;;;;;;;;;13.00;97.50;;;;;;4287292;33;42710;-83
2022/03/29 08:58:12;;;;;;;;;;;13.00;97.50;;;;;;4286889;33;42931;-83
2022/03/29 09:00:44;;;;;;;;;;;13.00;97.90;;;;;;4286704;33;44204;-82
2022/03/29 09:03:14;;;;;;;;;;;13.00;97.50;;;;;;4285936;33;44196;-81
2022/03/29 09:05:41;;;;;;;;;;;13.00;97.60;;;;;;4286931;33;44908;-82
2022/03/29 09:08:09;;;;;;;;;;;13.00;97.60;;;;;;4285987;33;42676;-82
2022/03/29 09:10:41;;;;;;;;;;;13.10;97.70;;;;;;4286930;33;43897;-82
2022/03/29 09:13:17;;;;;;;;;;;13.00;97.70;;;;;;4285713;33;43207;-82
2022/03/29 09:15:45;;;;;;;;;;;13.00;97.70;;;;;;4286716;33;43974;-82
2022/03/29 09:18:14;;;;;;;;;;;13.10;97.80;;;;;;4285841;33;44361;-83
2022/03/29 09:20:45;;;;;;;;;;;13.10;97.80;;;;;;4286996;33;46260;-82
2022/03/29 09:23:14;;;;;;;;;;;13.10;97.90;;;;;;4285452;33;43463;-82
2022/03/29 09:25:48;;;;;;;;;;;13.10;97.90;;;;;;4285384;33;45695;-82
2022/03/29 09:28:16;;;;;;;;;;;13.10;97.80;;;;;;4287590;33;20009;-81
2022/03/29 09:30:53;;;;;;;;;;;13.10;97.80;;;;;;4286841;33;45945;-82
2022/03/29 09:33:27;;;;;;;;;;;13.10;97.80;;;;;;4286851;33;44168;-82
2022/03/29 09:35:58;;;;;;;;;;;13.10;97.80;;;;;;4286607;33;45110;-83
2022/03/29 09:38:27;;;;;;;;;;;13.10;97.90;;;;;;4286696;33;43486;-82
2022/03/29 09:40:55;;;;;;;;;;;13.10;97.90;;;;;;4286356;33;42988;-82
2022/03/29 09:43:26;;;;;;;;;;;13.10;97.90;;;;;;4286288;33;44457;-82
2022/03/29 09:46:00;;;;;;;;;;;13.10;97.90;;;;;;4285669;33;43900;-82
2022/03/29 09:48:37;;;;;;;;;;;13.10;97.80;;;;;;4286933;33;44571;-82
2022/03/29 09:51:07;;;;;;;;;;;13.10;97.70;;;;;;4286353;33;44318;-82
2022/03/29 09:53:38;;;;;;;;;;;13.10;97.70;;;;;;4285238;33;42735;-82
2022/03/29 09:56:08;;;;;;;;;;;13.10;97.40;;;;;;4287272;33;42675;-82
2022/03/29 09:58:36;;;;;;;;;;;13.10;97.10;;;;;;4289255;33;20003;-82
2022/03/29 10:01:03;;;;;;;;;;;13.10;97.00;;;;;;4288049;33;46011;-82
2022/03/29 10:03:31;;;;;;;;;;;13.20;96.90;;;;;;4287990;33;43807;-82
2022/03/29 10:06:01;;;;;;;;;;;13.10;96.90;;;;;;4289091;33;43844;-82
2022/03/29 10:11:21;;;;;;;;;;;13.10;96.70;;;;;;4289061;33;42850;-83
2022/03/29 10:13:49;;;;;;;;;;;13.20;96.70;;;;;;4288291;33;44232;-83
2022/03/29 10:16:17;;;;;;;;;;;13.10;96.70;;;;;;4288858;33;43447;-82
2022/03/29 10:18:45;;;;;;;;;;;13.20;96.60;;;;;;4289426;33;43482;-82
2022/03/29 10:21:16;;;;;;;;;;;13.20;96.70;;;;;;4288842;33;44126;-82
2022/03/29 10:23:49;;;;;;;;;;;13.20;96.80;;;;;;4287615;33;44204;-84
2022/03/29 10:26:17;;;;;;;;;;;13.20;96.80;;;;;;4289429;33;43490;-83
2022/03/29 10:28:45;;;;;;;;;;;13.20;96.80;;;;;;4289578;33;20018;-82
2022/03/29 10:31:29;;;;;;;;;;;13.20;96.70;;;;;;4288635;33;46175;-82
2022/03/29 10:34:17;;;;;;;;;;;13.20;96.80;;;;;;4287687;33;43006;-82
2022/03/29 10:37:01;;;;;;;;;;;13.30;96.80;;;;;;4288115;33;42952;-83
2022/03/29 10:39:46;;;;;;;;;;;13.30;96.80;;;;;;4288194;33;43248;-83
2022/03/29 10:42:26;;;;;;;;;;;13.30;96.70;;;;;;4288504;33;43881;-83
2022/03/29 10:44:59;;;;;;;;;;;13.30;96.70;;;;;;4288515;33;42858;-83
2022/03/29 10:47:47;;;;;;;;;;;13.30;96.70;;;;;;4288198;33;44720;-83
2022/03/29 10:50:15;;;;;;;;;;;13.30;96.80;;;;;;4288824;33;43567;-82
2022/03/29 10:52:47;;;;;;;;;;;13.40;96.80;;;;;;4287435;33;42869;-82
2022/03/29 10:55:21;;;;;;;;;;;13.30;96.70;;;;;;4287804;33;43255;-83
2022/03/29 10:58:02;;;;;;;;;;;13.40;96.80;;;;;;4287295;33;42245;-82
2022/03/29 11:00:31;;;;;;;;;;;13.40;96.70;;;;;;4288699;33;20397;-83
2022/03/29 11:03:12;;;;;;;;;;;13.40;96.60;;;;;;4287280;33;43186;-82
2022/03/29 11:05:58;;;;;;;;;;;13.40;96.70;;;;;;4288750;33;43224;-83
2022/03/29 11:08:28;;;;;;;;;;;13.40;96.70;;;;;;4286925;33;43933;-83
2022/03/29 11:10:58;;;;;;;;;;;13.40;96.70;;;;;;4287305;33;44158;-83
2022/03/29 11:13:26;;;;;;;;;;;13.40;96.60;;;;;;4287671;33;43303;-83
2022/03/29 11:15:53;;;;;;;;;;;13.50;96.50;;;;;;4287294;33;44237;-83
2022/03/29 11:18:30;;;;;;;;;;;13.50;96.50;;;;;;4287217;33;42985;-83
2022/03/29 11:21:03;;;;;;;;;;;13.50;96.40;;;;;;4288528;33;43876;-83
2022/03/29 11:23:41;;;;;;;;;;;13.50;96.50;;;;;;4288027;33;42359;-83
2022/03/29 11:26:12;;;;;;;;;;;13.50;96.80;;;;;;4288438;33;42945;-82
2022/03/29 11:28:50;;;;;;;;;;;13.50;96.50;;;;;;4286997;33;43504;-82
2022/03/29 11:31:18;;;;;;;;;;;13.50;96.40;;;;;;4288096;33;20034;-83
2022/03/29 11:33:49;;;;;;;;;;;13.50;96.40;;;;;;4287158;33;44181;-83
2022/03/29 11:36:19;;;;;;;;;;;13.50;96.30;;;;;;4287118;33;42388;-83
2022/03/29 11:38:47;;;;;;;;;;;13.60;96.40;;;;;;4287204;33;43905;-83
2022/03/29 11:41:25;;;;;;;;;;;13.50;96.40;;;;;;4288186;33;43531;-83
2022/03/29 11:43:53;;;;;;;;;;;13.60;96.50;;;;;;4286882;33;42700;-84
2022/03/29 11:46:22;;;;;;;;;;;13.60;96.50;;;;;;4288173;33;43596;-83
2022/03/29 11:48:50;;;;;;;;;;;13.60;96.50;;;;;;4287677;33;45783;-83
2022/03/29 11:51:17;;;;;;;;;;;13.60;96.50;;;;;;4288104;33;44187;-82
2022/03/29 11:53:44;;;;;;;;;;;13.60;96.30;;;;;;4288063;33;43469;-83
2022/03/29 11:56:13;;;;;;;;;;;13.60;96.40;;;;;;4288034;33;43903;-83
2022/03/29 11:58:43;;;;;;;;;;;13.60;96.50;;;;;;4286802;33;43291;-83
2022/03/29 12:01:11;;;;;;;;;;;13.70;96.50;;;;;;4287742;33;44077;-83
2022/03/29 12:03:45;;;;;;;;;;;13.70;96.50;;;;;;4286509;33;43033;-83
2022/03/29 12:06:14;;;;;;;;;;;13.70;96.60;;;;;;4286840;33;44339;-84
2022/03/29 12:08:56;;;;;;;;;;;13.70;96.50;;;;;;4286930;33;43902;-82
2022/03/29 12:11:34;;;;;;;;;;;13.70;96.60;;;;;;4286935;33;43481;-83
2022/03/29 12:14:11;;;;;;;;;;;13.70;96.50;;;;;;4287694;33;44702;-83
2022/03/29 12:16:40;;;;;;;;;;;13.70;96.50;;;;;;4287703;33;44154;-83
2022/03/29 12:19:16;;;;;;;;;;;13.80;96.40;;;;;;4287351;33;42653;-83
2022/03/29 12:21:48;;;;;;;;;;;13.80;96.40;;;;;;4287829;33;43490;-83
2022/03/29 12:24:24;;;;;;;;;;;13.80;96.40;;;;;;4287244;33;44099;-83
2022/03/29 12:26:52;;;;;;;;;;;13.80;96.20;;;;;;4287364;33;43126;-84
2022/03/29 12:29:21;;;;;;;;;;;13.80;96.20;;;;;;4286110;33;43065;-83
2022/03/29 12:31:48;;;;;;;;;;;13.80;96.20;;;;;;4287181;33;43876;-83
2022/03/29 12:34:21;;;;;;;;;;;13.90;96.20;;;;;;4286129;33;43189;-83
2022/03/29 12:36:49;;;;;;;;;;;13.80;96.20;;;;;;4287321;33;43271;-84
2022/03/29 12:39:16;;;;;;;;;;;13.80;96.30;;;;;;4286269;33;44504;-84
2022/03/29 12:41:51;;;;;;;;;;;13.90;96.30;;;;;;4286428;33;43926;-84
2022/03/29 12:44:32;;;;;;;;;;;13.90;96.20;;;;;;4287401;33;43984;-83
2022/03/29 12:46:59;;;;;;;;;;;13.90;96.10;;;;;;4287129;33;45779;-83
2022/03/29 12:49:27;;;;;;;;;;;13.90;96.10;;;;;;4286341;33;44242;-83
2022/03/29 12:51:55;;;;;;;;;;;13.90;96.10;;;;;;4286285;33;44236;-83
2022/03/29 12:54:33;;;;;;;;;;;13.90;96.10;;;;;;4287317;33;45574;-83
2022/03/29 12:57:00;;;;;;;;;;;14.00;96.00;;;;;;4285835;33;43515;-83
2022/03/29 12:59:41;;;;;;;;;;;13.90;96.20;;;;;;4287089;33;43478;-84
2022/03/29 13:02:12;;;;;;;;;;;14.00;96.20;;;;;;4286818;33;42936;-84
2022/03/29 13:04:41;;;;;;;;;;;14.00;96.20;;;;;;4285544;33;44053;-84
2022/03/29 13:07:08;;;;;;;;;;;14.00;96.20;;;;;;4285556;33;44733;-84
2022/03/29 13:09:36;;;;;;;;;;;14.00;96.20;;;;;;4286608;33;43872;-83
2022/03/29 13:12:23;;;;;;;;;;;14.00;96.20;;;;;;4287176;33;46179;-83
2022/03/29 13:14:50;;;;;;;;;;;14.00;96.20;;;;;;4286566;33;43836;-83
2022/03/29 13:17:18;;;;;;;;;;;14.10;96.30;;;;;;4286916;33;45263;-85
2022/03/29 13:19:55;;;;;;;;;;;14.10;96.30;;;;;;4285942;33;44180;-85
2022/03/29 13:22:22;;;;;;;;;;;14.10;96.20;;;;;;4287103;33;45698;-85
2022/03/29 13:24:49;;;;;;;;;;;14.10;96.20;;;;;;4286469;33;44254;-85
2022/03/29 13:27:17;;;;;;;;;;;14.10;96.20;;;;;;4285712;33;42829;-85
2022/03/29 13:29:49;;;;;;;;;;;14.10;96.20;;;;;;4287055;33;43897;-85
2022/03/29 13:32:16;;;;;;;;;;;14.10;96.30;;;;;;4288018;33;44197;-85
2022/03/29 13:34:43;;;;;;;;;;;14.10;96.50;;;;;;4289356;33;20011;-85
2022/03/29 13:37:10;;;;;;;;;;;14.20;96.40;;;;;;4289696;33;43008;-85
2022/03/29 13:39:38;;;;;;;;;;;14.20;96.40;;;;;;4288215;33;43994;-85
2022/03/29 13:42:08;;;;;;;;;;;14.20;96.40;;;;;;4288831;33;42563;-86
2022/03/29 13:44:36;;;;;;;;;;;14.20;96.40;;;;;;4289388;33;44149;-85
2022/03/29 13:47:04;;;;;;;;;;;14.20;96.50;;;;;;4288283;33;45499;-85
2022/03/29 13:49:31;;;;;;;;;;;14.20;96.40;;;;;;4288265;33;43363;-85
2022/03/29 13:51:58;;;;;;;;;;;14.20;96.40;;;;;;4288889;33;43359;-85
2022/03/29 13:54:26;;;;;;;;;;;14.30;96.50;;;;;;4288656;33;45151;-85
2022/03/29 13:56:53;;;;;;;;;;;14.20;96.50;;;;;;4289617;33;44194;-85
2022/03/29 13:59:25;;;;;;;;;;;14.30;96.50;;;;;;4288213;33;43388;-85
2022/03/29 14:01:59;;;;;;;;;;;14.20;96.40;;;;;;4288351;33;45034;-86
2022/03/29 14:04:26;;;;;;;;;;;14.30;96.40;;;;;;4289675;33;44348;-86
2022/03/29 14:06:54;;;;;;;;;;;14.30;96.50;;;;;;4289356;33;44540;-85
2022/03/29 14:09:21;;;;;;;;;;;14.30;96.60;;;;;;4289418;33;44176;-86
2022/03/29 14:11:48;;;;;;;;;;;14.30;96.40;;;;;;4289212;33;43487;-85
2022/03/29 14:14:15;;;;;;;;;;;14.30;96.40;;;;;;4289228;33;43566;-86
2022/03/29 14:16:42;;;;;;;;;;;14.30;96.40;;;;;;4288621;33;43308;-86
2022/03/29 14:19:10;;;;;;;;;;;14.30;96.40;;;;;;4289437;33;42956;-86
2022/03/29 14:21:37;;;;;;;;;;;14.30;96.50;;;;;;4288170;33;42497;-86
2022/03/29 14:24:04;;;;;;;;;;;14.30;96.60;;;;;;4288650;33;45733;-86
2022/03/29 14:26:32;;;;;;;;;;;14.30;96.70;;;;;;4287678;33;43324;-86
2022/03/29 14:29:02;;;;;;;;;;;14.30;96.70;;;;;;4288253;33;44250;-86
2022/03/29 14:31:29;;;;;;;;;;;14.30;96.70;;;;;;4288332;33;44007;-85
2022/03/29 14:33:57;;;;;;;;;;;14.40;96.80;;;;;;4288717;33;42685;-86
2022/03/29 14:36:25;;;;;;;;;;;14.40;96.80;;;;;;4289039;33;43949;-86